createdAt,value
2017-12-05T00:00:37.203Z,50.27
2017-12-05T00:03:05.256Z,38.27
2017-12-05T00:05:34.055Z,41.87
2017-12-05T00:08:02.951Z,25.07
2017-12-05T00:10:31.819Z,48.70
2017-12-05T00:12:59.986Z,38.33
2017-12-05T00:15:28.199Z,47.90
2017-12-05T00:17:57.007Z,30.43
2017-12-05T00:20:25.035Z,39.63
2017-12-05T00:22:53.214Z,47.30
2017-12-05T00:25:21.258Z,37.23
2017-12-05T00:27:49.302Z,29.37
2017-12-05T00:30:17.555Z,36.27
2017-12-05T00:32:46.342Z,52.03
2017-12-05T00:35:15.199Z,39.50
2017-12-05T00:37:43.375Z,30.40
2017-12-05T00:40:11.406Z,29.87
2017-12-05T00:42:39.491Z,44.17
2017-12-05T00:45:07.698Z,37.10
2017-12-05T00:47:35.966Z,48.97
2017-12-05T00:50:04.131Z,40.90
2017-12-05T00:52:32.311Z,48.37
2017-12-05T00:55:00.361Z,34.47
2017-12-05T00:57:28.435Z,41.47
2017-12-05T00:59:56.747Z,34.50
2017-12-05T01:02:24.808Z,38.97
2017-12-05T01:04:52.863Z,34.13
2017-12-05T01:07:21.028Z,49.63
2017-12-05T01:09:49.075Z,34.80
2017-12-05T01:12:17.860Z,39.40
2017-12-05T01:14:46.767Z,35.23
2017-12-05T01:17:14.778Z,41.07
2017-12-05T01:19:42.799Z,35.17
2017-12-05T01:22:11.732Z,46.93
2017-12-05T01:24:39.818Z,51.53
2017-12-05T01:27:07.835Z,35.87
2017-12-05T01:29:36.718Z,35.77
2017-12-05T01:32:05.468Z,39.13
2017-12-05T01:34:33.479Z,45.57
2017-12-05T01:37:02.355Z,34.67
2017-12-05T01:39:30.407Z,39.10
2017-12-05T01:41:58.438Z,30.93
2017-12-05T01:44:26.575Z,39.03
2017-12-05T01:46:54.714Z,56.13
2017-12-05T01:49:22.772Z,37.67
2017-12-05T01:51:50.966Z,39.73
2017-12-05T01:54:19.147Z,38.43
2017-12-05T01:56:47.187Z,27.97
2017-12-05T01:59:15.635Z,40.20
2017-12-05T02:01:43.864Z,38.90
2017-12-05T02:04:12.082Z,33.67
2017-12-05T02:06:40.400Z,34.97
2017-12-05T02:09:08.579Z,37.20
2017-12-05T02:11:36.611Z,29.40
2017-12-05T02:14:04.846Z,36.90
2017-12-05T02:16:32.911Z,29.03
2017-12-05T02:19:01.095Z,29.30
2017-12-05T02:21:29.371Z,29.77
2017-12-05T02:23:57.382Z,39.67
2017-12-05T02:26:25.532Z,58.90
2017-12-05T02:28:53.695Z,45.13
2017-12-05T02:31:21.752Z,31.47
2017-12-05T02:33:49.768Z,42.27
2017-12-05T02:36:17.915Z,46.83
2017-12-05T02:38:45.976Z,38.63
2017-12-05T02:41:14.028Z,45.60
2017-12-05T02:43:42.347Z,25.20
2017-12-05T02:46:10.548Z,35.70
2017-12-05T02:48:38.676Z,40.30
2017-12-05T02:51:06.982Z,48.93
2017-12-05T02:53:35.104Z,36.93
2017-12-05T02:56:03.386Z,30.60
2017-12-05T02:58:31.678Z,38.30
2017-12-05T03:00:59.973Z,42.20
2017-12-05T03:03:28.227Z,36.70
2017-12-05T03:05:56.524Z,53.33
2017-12-05T03:08:24.618Z,41.87
2017-12-05T03:10:52.721Z,53.27
2017-12-05T03:13:21.739Z,50.13
2017-12-05T03:15:49.827Z,45.27
2017-12-05T03:18:17.903Z,43.83
2017-12-05T03:20:46.211Z,55.13
2017-12-05T03:23:14.311Z,44.57
2017-12-05T03:25:43.111Z,40.03
2017-12-05T03:28:11.995Z,64.20
2017-12-05T03:30:40.771Z,43.60
2017-12-05T03:33:08.795Z,44.73
2017-12-05T03:35:36.934Z,44.70
2017-12-05T03:38:05.702Z,55.43
2017-12-05T03:40:33.782Z,40.17
2017-12-05T03:43:01.968Z,43.23
2017-12-05T03:45:30.768Z,49.20
2017-12-05T03:47:59.519Z,37.13
2017-12-05T03:50:27.835Z,44.33
2017-12-05T03:52:56.768Z,47.30
2017-12-05T03:55:24.843Z,53.97
2017-12-05T03:57:53.007Z,37.97
2017-12-05T04:00:21.027Z,41.80
2017-12-05T04:02:49.084Z,41.93
2017-12-05T04:05:17.402Z,55.13
2017-12-05T04:07:46.203Z,37.10
2017-12-05T04:10:14.251Z,39.37
2017-12-05T04:12:43.143Z,42.27
2017-12-05T04:15:11.912Z,53.27
2017-12-05T04:17:39.922Z,41.27
2017-12-05T04:20:08.802Z,46.90
2017-12-05T04:22:37.569Z,61.23
2017-12-05T04:25:05.628Z,36.87
2017-12-05T04:27:33.766Z,45.17
2017-12-05T04:30:01.783Z,45.77
2017-12-05T04:32:29.891Z,40.80
2017-12-05T04:34:58.783Z,42.43
2017-12-05T04:37:27.579Z,38.40
2017-12-05T04:39:56.362Z,48.63
2017-12-05T04:42:25.251Z,39.50
2017-12-05T04:44:54.039Z,46.07
2017-12-05T04:47:22.916Z,48.70
2017-12-05T04:49:51.826Z,31.70
2017-12-05T04:52:20.791Z,43.37
2017-12-05T04:54:48.967Z,24.03
2017-12-05T04:57:17.275Z,37.63
2017-12-05T04:59:46.164Z,36.73
2017-12-05T05:02:15.591Z,33.83
2017-12-05T05:04:43.902Z,29.03
2017-12-05T05:07:12.234Z,29.77
2017-12-05T05:09:41.224Z,34.90
2017-12-05T05:12:10.872Z,24.97
2017-12-05T05:14:38.935Z,29.47
2017-12-05T05:17:07.140Z,34.53
2017-12-05T05:19:35.406Z,25.03
2017-12-05T05:22:03.615Z,25.70
2017-12-05T05:24:31.645Z,26.37
2017-12-05T05:26:59.902Z,13.70
2017-12-05T05:29:28.079Z,21.23
2017-12-05T05:31:56.139Z,18.43
2017-12-05T05:34:25.104Z,21.33
2017-12-05T05:36:53.167Z,17.77
2017-12-05T05:39:21.359Z,17.40
2017-12-05T05:41:49.663Z,9.87
2017-12-05T05:44:17.720Z,12.93
2017-12-05T05:46:46.524Z,9.97
2017-12-05T05:49:15.699Z,15.00
2017-12-05T05:51:43.776Z,20.20
2017-12-05T05:54:12.532Z,16.70
2017-12-05T05:56:40.747Z,10.57
2017-12-05T05:59:09.523Z,15.33
2017-12-05T06:01:37.552Z,25.87
2017-12-05T06:04:05.724Z,15.83
2017-12-05T06:06:33.755Z,36.57
2017-12-05T06:09:02.703Z,23.70
2017-12-05T06:11:30.832Z,24.73
2017-12-05T06:13:59.623Z,27.73
2017-12-05T06:16:28.419Z,25.60
2017-12-05T06:18:56.647Z,24.47
2017-12-05T06:21:24.700Z,22.90
2017-12-05T06:23:52.710Z,25.17
2017-12-05T06:26:22.023Z,34.73
2017-12-05T06:28:50.783Z,38.73
2017-12-05T06:31:18.795Z,29.03
2017-12-05T06:33:47.691Z,35.70
2017-12-05T06:36:16.454Z,35.67
2017-12-05T06:38:44.486Z,26.47
2017-12-05T06:41:12.610Z,27.70
2017-12-05T06:43:41.409Z,35.17
2017-12-05T06:46:09.447Z,38.73
2017-12-05T06:48:37.602Z,30.37
2017-12-05T06:51:05.819Z,31.50
2017-12-05T06:53:34.779Z,38.40
2017-12-05T06:56:03.128Z,46.00
2017-12-05T06:58:31.504Z,26.50
2017-12-05T07:00:59.764Z,41.63
2017-12-05T07:03:28.907Z,35.57
2017-12-05T07:05:57.063Z,42.70
2017-12-05T07:08:25.135Z,25.47
2017-12-05T07:10:53.590Z,26.10
2017-12-05T07:13:22.607Z,28.07
2017-12-05T07:15:50.706Z,26.23
2017-12-05T07:18:18.980Z,25.70
2017-12-05T07:20:47.083Z,32.50
2017-12-05T07:23:15.184Z,22.47
2017-12-05T07:25:44.177Z,28.20
2017-12-05T07:28:13.179Z,30.80
2017-12-05T07:30:42.107Z,15.70
2017-12-05T07:33:10.343Z,40.00
2017-12-05T07:35:38.628Z,27.60
2017-12-05T07:38:06.736Z,22.73
2017-12-05T07:40:35.031Z,18.77
2017-12-05T07:43:03.203Z,23.37
2017-12-05T07:45:31.504Z,25.77
2017-12-05T07:47:59.735Z,22.53
2017-12-05T07:50:27.981Z,18.43
2017-12-05T07:52:56.795Z,22.80
2017-12-05T07:55:24.987Z,26.37
2017-12-05T07:57:53.051Z,24.70
2017-12-05T08:00:21.195Z,22.40
2017-12-05T08:02:50.112Z,17.80
2017-12-05T08:05:18.271Z,21.00
2017-12-05T08:07:46.523Z,13.13
2017-12-05T08:10:15.466Z,18.33
2017-12-05T08:12:43.834Z,31.33
2017-12-05T08:15:11.903Z,24.13
2017-12-05T08:17:40.237Z,31.13
2017-12-05T08:20:08.383Z,31.13
2017-12-05T08:22:36.608Z,19.00
2017-12-05T08:25:05.631Z,27.70
2017-12-05T08:27:33.771Z,30.10
2017-12-05T08:30:02.655Z,40.43
2017-12-05T08:32:30.847Z,17.80
2017-12-05T08:34:59.767Z,27.77
2017-12-05T08:37:28.123Z,27.87
2017-12-05T08:39:57.167Z,24.97
2017-12-05T08:42:25.459Z,26.73
2017-12-05T08:44:53.723Z,29.67
2017-12-05T08:47:21.983Z,17.83
2017-12-05T08:49:50.223Z,19.00
2017-12-05T08:52:18.406Z,38.40
2017-12-05T08:54:47.492Z,18.30
2017-12-05T08:57:16.354Z,24.43
2017-12-05T08:59:44.467Z,33.03
2017-12-05T09:02:13.531Z,19.63
2017-12-05T09:04:41.613Z,33.93
2017-12-05T09:07:09.915Z,24.87
2017-12-05T09:09:38.859Z,29.70
2017-12-05T09:12:06.950Z,20.03
2017-12-05T09:14:35.354Z,20.60
2017-12-05T09:17:04.493Z,30.63
2017-12-05T09:19:32.779Z,25.10
2017-12-05T09:22:00.903Z,25.47
2017-12-05T09:24:29.884Z,16.33
2017-12-05T09:26:58.113Z,19.00
2017-12-05T09:29:26.323Z,31.60
2017-12-05T09:31:54.663Z,28.03
2017-12-05T09:34:22.911Z,22.60
2017-12-05T09:36:51.876Z,14.03
2017-12-05T09:39:20.143Z,20.50
2017-12-05T09:41:48.386Z,19.80
2017-12-05T09:44:16.568Z,26.80
2017-12-05T09:46:44.839Z,19.57
2017-12-05T09:49:13.055Z,17.13
2017-12-05T09:51:41.247Z,14.30
2017-12-05T09:54:09.596Z,18.73
2017-12-05T09:56:37.715Z,21.10
2017-12-05T09:59:06.654Z,20.00
2017-12-05T10:01:35.092Z,16.90
2017-12-05T10:04:04.084Z,27.80
2017-12-05T10:06:33.135Z,15.93
2017-12-05T10:09:01.370Z,24.50
2017-12-05T10:11:29.511Z,20.73
2017-12-05T10:13:57.645Z,27.13
2017-12-05T10:16:26.067Z,17.03
2017-12-05T10:18:54.250Z,18.90
2017-12-05T10:21:23.164Z,12.40
2017-12-05T10:23:52.231Z,11.27
2017-12-05T10:26:20.323Z,11.07
2017-12-05T10:28:49.312Z,18.20
2017-12-05T10:31:18.404Z,17.57
2017-12-05T10:33:47.294Z,20.47
2017-12-05T10:36:15.551Z,9.37
2017-12-05T10:38:43.839Z,19.53
2017-12-05T10:41:11.987Z,18.83
2017-12-05T10:43:40.251Z,11.63
2017-12-05T10:46:08.537Z,19.27
2017-12-05T10:48:36.724Z,18.27
2017-12-05T10:51:04.939Z,20.63
2017-12-05T10:53:33.959Z,12.50
2017-12-05T10:56:02.242Z,16.03
2017-12-05T10:58:30.314Z,14.70
2017-12-05T11:00:58.510Z,20.40
2017-12-05T11:03:26.672Z,16.20
2017-12-05T11:05:54.756Z,20.57
2017-12-05T11:08:22.946Z,10.10
2017-12-05T11:10:51.363Z,8.87
2017-12-05T11:13:20.176Z,20.27
2017-12-05T11:15:48.395Z,17.17
2017-12-05T11:18:16.558Z,21.37
2017-12-05T11:20:44.771Z,11.73
2017-12-05T11:23:13.094Z,20.13
2017-12-05T11:25:41.295Z,14.57
2017-12-05T11:28:09.636Z,24.53
2017-12-05T11:30:37.931Z,22.70
2017-12-05T11:33:06.083Z,15.73
2017-12-05T11:35:34.924Z,28.77
2017-12-05T11:38:03.163Z,12.00
2017-12-05T11:40:31.179Z,27.07
2017-12-05T11:42:59.279Z,18.83
2017-12-05T11:45:28.182Z,13.23
2017-12-05T11:47:57.010Z,24.27
2017-12-05T11:50:25.099Z,16.40
2017-12-05T12:05:59.330Z,17.70
2017-12-05T12:08:28.171Z,13.90
2017-12-05T12:10:56.186Z,14.07
2017-12-05T12:13:24.417Z,19.33
2017-12-05T12:15:52.450Z,11.27
2017-12-05T12:18:20.671Z,14.37
2017-12-05T12:20:48.880Z,19.83
2017-12-05T12:23:16.950Z,17.70
2017-12-05T12:25:45.050Z,21.13
2017-12-05T12:28:13.255Z,15.10
2017-12-05T12:30:41.275Z,14.33
2017-12-05T12:33:09.299Z,14.90
2017-12-05T12:35:38.147Z,13.77
2017-12-05T12:38:06.206Z,14.20
2017-12-05T12:40:34.353Z,13.90
2017-12-05T12:43:02.555Z,15.60
2017-12-05T12:45:30.656Z,28.77
2017-12-05T12:47:58.686Z,9.93
2017-12-05T12:50:26.819Z,11.60
2017-12-05T12:52:55.579Z,8.77
2017-12-05T12:55:23.727Z,16.30
2017-12-05T12:57:51.888Z,9.40
2017-12-05T13:00:19.913Z,10.10
2017-12-05T13:02:48.699Z,7.87
2017-12-05T13:05:16.835Z,9.60
2017-12-05T13:07:44.876Z,7.33
2017-12-05T13:10:12.942Z,8.60
2017-12-05T13:12:41.814Z,8.43
2017-12-05T13:15:09.855Z,13.47
2017-12-05T13:17:37.919Z,13.70
2017-12-05T13:20:06.183Z,9.00
2017-12-05T13:22:34.276Z,10.57
2017-12-05T13:25:02.349Z,23.70
2017-12-05T13:27:30.559Z,9.40
2017-12-05T13:29:59.363Z,13.67
2017-12-05T13:32:28.176Z,11.97
2017-12-05T13:34:56.352Z,7.87
2017-12-05T13:37:24.390Z,16.97
2017-12-05T13:39:53.168Z,14.57
2017-12-05T13:42:21.330Z,9.23
2017-12-05T13:44:49.419Z,8.70
2017-12-05T13:47:17.492Z,11.27
2017-12-05T13:49:45.672Z,7.10
2017-12-05T13:52:13.759Z,13.63
2017-12-05T13:54:42.539Z,10.27
2017-12-05T13:57:11.589Z,14.40
2017-12-05T13:59:39.780Z,10.23
2017-12-05T14:02:07.874Z,13.27
2017-12-05T14:04:36.130Z,11.17
2017-12-05T14:07:04.531Z,9.70
2017-12-05T14:09:32.584Z,16.83
2017-12-05T14:12:00.847Z,7.10
2017-12-05T14:14:29.060Z,16.23
2017-12-05T14:16:57.123Z,10.43
2017-12-05T14:19:25.971Z,9.03
2017-12-05T14:21:54.183Z,15.60
2017-12-05T14:24:22.370Z,11.20
2017-12-05T14:26:50.609Z,9.03
2017-12-05T14:29:18.679Z,16.47
2017-12-05T14:31:46.756Z,12.27
2017-12-05T14:34:15.806Z,16.00
2017-12-05T14:36:45.024Z,12.03
2017-12-05T14:39:13.063Z,8.33
2017-12-05T14:41:41.292Z,12.83
2017-12-05T14:44:09.366Z,14.50
2017-12-05T14:46:37.435Z,12.83
2017-12-05T14:49:05.672Z,14.63
2017-12-05T14:51:34.515Z,13.70
2017-12-05T14:54:03.405Z,13.33
2017-12-05T14:56:31.830Z,13.53
2017-12-05T14:59:00.074Z,9.47
2017-12-05T15:01:28.156Z,16.07
2017-12-05T15:03:56.319Z,14.23
2017-12-05T15:06:24.488Z,17.03
2017-12-05T15:08:52.553Z,13.67
2017-12-05T15:11:20.751Z,10.33
2017-12-05T15:13:48.844Z,17.77
2017-12-05T15:16:16.927Z,20.63
2017-12-05T15:18:45.139Z,11.33
2017-12-05T15:21:13.220Z,24.47
2017-12-05T15:23:41.438Z,13.53
2017-12-05T15:26:09.651Z,9.07
2017-12-05T15:28:38.443Z,18.40
2017-12-05T15:31:07.282Z,14.63
2017-12-05T15:33:35.467Z,13.50
2017-12-05T15:36:03.735Z,16.13
2017-12-05T15:38:31.803Z,20.97
2017-12-05T15:41:00.008Z,16.73
2017-12-05T15:43:28.146Z,20.47
2017-12-05T15:45:56.217Z,10.10
2017-12-05T15:48:24.388Z,13.83
2017-12-05T15:50:52.456Z,18.47
2017-12-05T15:53:20.487Z,14.40
2017-12-05T15:55:49.417Z,11.40
2017-12-05T15:58:17.511Z,16.60
2017-12-05T16:00:45.640Z,19.17
2017-12-05T16:03:14.555Z,15.20
2017-12-05T16:05:42.682Z,18.40
2017-12-05T16:08:10.731Z,12.43
2017-12-05T16:10:38.883Z,18.13
2017-12-05T16:13:07.007Z,20.53
2017-12-05T16:15:35.134Z,13.83
2017-12-05T16:18:03.329Z,12.93
2017-12-05T16:20:31.555Z,11.07
2017-12-05T16:23:00.371Z,14.80
2017-12-05T16:25:28.572Z,20.67
2017-12-05T16:27:56.595Z,18.37
2017-12-05T16:30:25.764Z,15.53
2017-12-05T16:32:54.671Z,27.07
2017-12-05T16:35:23.527Z,21.70
2017-12-05T16:37:51.624Z,23.70
2017-12-05T16:40:19.827Z,16.03
2017-12-05T16:42:48.595Z,28.13
2017-12-05T16:45:17.406Z,25.17
2017-12-05T16:47:45.562Z,23.10
2017-12-05T16:50:14.476Z,25.80
2017-12-05T16:52:42.528Z,21.03
2017-12-05T16:55:11.464Z,33.47
2017-12-05T16:57:39.515Z,28.33
2017-12-05T17:00:07.816Z,22.50
2017-12-05T17:02:36.087Z,28.90
2017-12-05T17:05:04.222Z,27.23
2017-12-05T17:07:33.015Z,30.33
2017-12-05T17:10:01.963Z,27.53
2017-12-05T17:12:30.376Z,33.27
2017-12-05T17:14:58.860Z,22.83
2017-12-05T17:17:27.060Z,26.43
2017-12-05T17:19:55.912Z,20.53
2017-12-05T17:22:24.052Z,19.27
2017-12-05T17:24:52.232Z,25.53
2017-12-05T17:27:20.255Z,26.50
2017-12-05T17:29:49.047Z,23.03
2017-12-05T17:32:17.976Z,18.77
2017-12-05T17:34:46.051Z,20.50
2017-12-05T17:37:14.128Z,23.40
2017-12-05T17:39:42.328Z,24.37
2017-12-05T17:42:10.351Z,20.30
2017-12-05T17:44:39.130Z,29.57
2017-12-05T17:47:08.011Z,23.67
2017-12-05T17:49:38.909Z,29.53
2017-12-05T17:52:07.107Z,37.37
2017-12-05T17:54:35.300Z,19.07
2017-12-05T17:57:03.323Z,29.67
2017-12-05T17:59:31.403Z,34.30
2017-12-05T18:01:59.599Z,22.77
2017-12-05T18:04:27.714Z,23.17
2017-12-05T18:06:56.624Z,29.53
2017-12-05T18:09:24.895Z,21.60
2017-12-05T18:11:53.063Z,25.87
2017-12-05T18:14:22.115Z,29.07
2017-12-05T18:16:50.388Z,20.20
2017-12-05T18:19:18.667Z,19.67
2017-12-05T18:21:46.846Z,26.40
2017-12-05T18:24:15.136Z,20.07
2017-12-05T18:26:43.230Z,26.10
2017-12-05T18:29:12.184Z,20.73
2017-12-05T18:31:40.386Z,27.20
2017-12-05T18:34:08.591Z,21.27
2017-12-05T18:36:36.807Z,24.77
2017-12-05T18:39:05.172Z,25.47
2017-12-05T18:41:33.287Z,36.00
2017-12-05T18:44:01.492Z,22.70
2017-12-05T18:46:30.475Z,23.33
2017-12-05T18:48:59.355Z,26.93
2017-12-05T18:51:27.701Z,26.50
2017-12-05T18:53:56.164Z,22.23
2017-12-05T18:56:24.438Z,29.83
2017-12-05T18:58:52.576Z,24.27
2017-12-05T19:01:21.663Z,41.57
2017-12-05T19:03:49.898Z,28.93
2017-12-05T19:06:18.075Z,26.87
2017-12-05T19:08:46.516Z,26.60
2017-12-05T19:11:15.443Z,24.20
2017-12-05T19:13:43.667Z,31.93
2017-12-05T19:16:12.041Z,18.27
2017-12-05T19:18:40.476Z,36.17
2017-12-05T19:21:08.745Z,28.23
2017-12-05T19:23:37.139Z,27.13
2017-12-05T19:26:05.350Z,21.03
2017-12-05T19:28:33.531Z,26.73
2017-12-05T19:31:01.886Z,20.50
2017-12-05T19:33:30.254Z,27.73
2017-12-05T19:35:58.431Z,30.87
2017-12-05T19:38:26.686Z,16.43
2017-12-05T19:40:54.877Z,21.10
2017-12-05T19:43:23.076Z,18.33
2017-12-05T19:45:51.483Z,17.90
2017-12-05T19:48:19.747Z,30.07
2017-12-05T19:50:48.063Z,28.47
2017-12-05T19:53:16.415Z,27.67
2017-12-05T19:55:44.867Z,27.77
2017-12-05T19:58:13.132Z,28.07
2017-12-05T20:00:41.515Z,30.93
2017-12-05T20:03:09.579Z,23.03
2017-12-05T20:05:37.755Z,17.23
2017-12-05T20:08:05.943Z,23.43
2017-12-05T20:10:34.051Z,25.97
2017-12-05T20:13:02.144Z,25.83
2017-12-05T20:15:31.161Z,18.77
2017-12-05T20:17:59.387Z,24.77
2017-12-05T20:20:27.524Z,25.77
2017-12-05T20:22:55.902Z,21.83
2017-12-05T20:25:24.207Z,29.93
2017-12-05T20:27:52.491Z,29.13
2017-12-05T20:30:20.834Z,23.73
2017-12-05T20:32:49.016Z,17.60
2017-12-05T20:35:17.140Z,36.10
2017-12-05T20:37:45.548Z,27.30
2017-12-05T20:40:13.762Z,27.17
2017-12-05T20:42:42.029Z,23.10
2017-12-05T20:45:10.452Z,39.17
2017-12-05T20:47:38.728Z,23.87
2017-12-05T20:50:06.738Z,28.07
2017-12-05T20:52:34.879Z,31.33
2017-12-05T20:55:02.929Z,18.70
2017-12-05T20:57:31.186Z,23.93
2017-12-05T20:59:59.471Z,25.63
2017-12-05T21:02:27.516Z,23.00
2017-12-05T21:04:55.544Z,15.83
2017-12-05T21:07:23.676Z,19.27
2017-12-05T21:09:51.691Z,24.97
2017-12-05T21:12:19.695Z,21.37
2017-12-05T21:14:47.841Z,20.33
2017-12-05T21:17:15.887Z,34.40
2017-12-05T21:19:43.902Z,18.87
2017-12-05T21:22:12.815Z,25.93
2017-12-05T21:24:40.859Z,30.83
2017-12-05T21:27:09.780Z,22.37
2017-12-05T21:29:37.933Z,23.23
2017-12-05T21:32:06.687Z,19.30
2017-12-05T21:34:34.690Z,26.13
2017-12-05T21:37:03.570Z,29.87
2017-12-05T21:39:31.592Z,34.40
2017-12-05T21:41:59.644Z,28.33
2017-12-05T21:44:27.811Z,25.53
2017-12-05T21:46:56.558Z,29.27
2017-12-05T21:49:24.566Z,28.03
2017-12-05T21:51:53.474Z,31.13
2017-12-05T21:54:21.493Z,25.07
2017-12-05T21:56:49.502Z,18.27
2017-12-05T21:59:18.538Z,21.43
2017-12-05T22:01:46.550Z,29.90
2017-12-05T22:04:14.607Z,30.97
2017-12-05T22:06:42.742Z,29.00
2017-12-05T22:09:10.755Z,19.83
2017-12-05T22:11:38.787Z,23.63
2017-12-05T22:14:06.956Z,19.20
2017-12-05T22:16:35.003Z,24.70
2017-12-05T22:19:03.793Z,22.40
2017-12-05T22:21:32.801Z,31.27
2017-12-05T22:24:00.846Z,17.50
2017-12-05T22:26:28.885Z,17.30
2017-12-05T22:28:57.055Z,27.17
2017-12-05T22:31:25.115Z,29.57
2017-12-05T22:46:41.943Z,29.23
2017-12-05T22:49:09.968Z,25.23
2017-12-05T22:51:38.029Z,24.77
2017-12-05T22:54:06.943Z,17.57
2017-12-05T22:56:34.980Z,15.97
2017-12-05T22:59:03.754Z,22.23
2017-12-05T23:01:32.033Z,15.77
2017-12-05T23:04:00.083Z,25.13
2017-12-05T23:06:28.181Z,16.23
2017-12-05T23:08:57.107Z,33.10
2017-12-05T23:11:25.873Z,21.67
2017-12-05T23:13:53.919Z,16.20
2017-12-05T23:16:22.065Z,19.10
2017-12-05T23:18:50.137Z,22.17
2017-12-05T23:21:18.195Z,23.20
2017-12-05T23:23:46.343Z,23.47
2017-12-05T23:26:14.372Z,31.47
2017-12-05T23:28:42.411Z,23.33
2017-12-05T23:31:10.591Z,21.80
2017-12-05T23:33:38.625Z,21.80
2017-12-05T23:36:06.691Z,17.57
2017-12-05T23:38:34.985Z,20.87
2017-12-05T23:41:03.799Z,23.07
2017-12-05T23:43:32.225Z,21.90
2017-12-05T23:46:00.470Z,18.13
2017-12-05T23:48:28.526Z,17.27
2017-12-05T23:50:57.304Z,31.17
2017-12-05T23:53:26.347Z,14.80
2017-12-05T23:55:54.387Z,21.13
2017-12-05T23:58:22.407Z,16.93
